createdAt,value
2023-02-02T00:01:37.791Z,91.71
2023-02-02T00:04:59.192Z,92.00
2023-02-02T00:07:28.716Z,91.76
2023-02-02T00:09:58.246Z,93.06
2023-02-02T00:12:28.221Z,95.17
2023-02-02T00:14:59.051Z,94.98
2023-02-02T00:17:28.376Z,99.56
2023-02-02T00:19:57.786Z,100.00
2023-02-02T00:22:26.877Z,100.00
2023-02-02T00:24:56.095Z,100.00
2023-02-02T00:27:25.759Z,95.09
2023-02-02T00:29:54.995Z,93.95
2023-02-02T00:32:26.307Z,91.70
2023-02-02T00:34:56.065Z,88.16
2023-02-02T00:37:25.183Z,90.32
2023-02-02T00:39:55.389Z,89.23
2023-02-02T00:42:24.984Z,88.55
2023-02-02T00:46:14.188Z,88.27
2023-02-02T00:48:44.733Z,86.90
2023-02-02T00:51:14.016Z,86.12
2023-02-02T00:53:43.547Z,85.21
2023-02-02T00:56:17.365Z,84.51
2023-02-02T00:58:46.615Z,83.88
2023-02-02T01:01:17.776Z,84.93
2023-02-02T01:03:49.081Z,84.36
2023-02-02T01:06:18.751Z,84.25
2023-02-02T01:09:14.379Z,83.45
2023-02-02T01:11:44.459Z,85.55
2023-02-02T01:14:13.628Z,85.43
2023-02-02T01:16:42.777Z,85.62
2023-02-02T01:19:14.749Z,83.14
2023-02-02T01:22:03.413Z,82.69
2023-02-02T01:24:32.639Z,82.40
2023-02-02T01:27:01.982Z,82.39
2023-02-02T01:29:32.091Z,82.37
2023-02-02T01:32:01.220Z,81.63
2023-02-02T01:34:31.871Z,83.39
2023-02-02T01:37:02.153Z,85.18
2023-02-02T01:39:33.107Z,86.76
2023-02-02T01:42:03.448Z,89.07
2023-02-02T01:45:06.357Z,90.81
2023-02-02T01:47:39.898Z,92.74
2023-02-02T01:50:35.685Z,90.19
2023-02-02T01:54:20.337Z,91.26
2023-02-02T01:56:53.083Z,92.09
2023-02-02T01:59:22.398Z,94.64
2023-02-02T02:01:52.792Z,94.82
2023-02-02T02:04:22.143Z,94.18
2023-02-02T02:06:53.913Z,95.87
2023-02-02T02:09:24.675Z,93.64
2023-02-02T12:01:07.092Z,100.00
2023-02-02T12:03:39.718Z,100.00
2023-02-02T12:06:23.358Z,100.00
2023-02-02T12:09:01.472Z,100.00
2023-02-02T12:36:51.643Z,100.00
2023-02-02T13:03:28.526Z,100.00
2023-02-02T13:06:09.953Z,100.00
2023-02-02T13:09:00.749Z,100.00
2023-02-02T13:12:18.663Z,100.00
2023-02-02T13:14:52.109Z,100.00
2023-02-02T13:17:27.367Z,100.00
2023-02-02T13:35:53.508Z,100.00
2023-02-02T13:38:24.787Z,100.00
2023-02-02T14:00:14.974Z,100.00
2023-02-02T14:04:01.847Z,100.00
2023-02-02T14:07:34.746Z,100.00
2023-02-02T14:10:04.608Z,100.00
2023-02-02T14:12:36.017Z,100.00
2023-02-02T14:25:55.609Z,100.00
2023-02-02T14:28:47.732Z,100.00
2023-02-02T14:31:43.536Z,100.00
2023-02-02T14:34:34.067Z,100.00
2023-02-02T14:37:31.050Z,100.00
2023-02-02T14:40:05.810Z,100.00
2023-02-02T14:43:05.163Z,100.00
2023-02-02T14:45:40.872Z,100.00
2023-02-02T14:48:11.975Z,100.00
2023-02-02T14:54:34.901Z,100.00
2023-02-02T14:57:07.005Z,100.00
2023-02-02T14:59:38.946Z,100.00
2023-02-02T15:06:44.170Z,100.00
2023-02-02T15:09:45.938Z,100.00
2023-02-02T15:12:20.146Z,100.00
2023-02-02T15:15:43.873Z,100.00
2023-02-02T15:18:18.605Z,100.00
2023-02-02T15:20:50.876Z,100.00
2023-02-02T15:26:37.964Z,100.00
2023-02-02T15:29:16.437Z,100.00
2023-02-02T15:41:13.077Z,100.00
2023-02-02T15:43:42.438Z,100.00
2023-02-02T15:53:23.880Z,100.00
2023-02-02T16:22:07.721Z,100.00
2023-02-02T16:24:39.673Z,100.00
2023-02-02T16:27:10.854Z,100.00
2023-02-02T16:39:53.299Z,100.00
2023-02-02T16:42:27.722Z,100.00
2023-02-02T16:45:38.855Z,100.00
2023-02-02T16:48:32.126Z,100.00
2023-02-02T16:51:13.839Z,100.00
2023-02-02T16:53:45.301Z,100.00
2023-02-02T16:56:28.723Z,100.00
2023-02-02T16:58:59.769Z,100.00
2023-02-02T17:01:37.780Z,100.00
2023-02-02T17:39:37.907Z,100.00
2023-02-02T18:14:07.711Z,100.00
2023-02-02T18:16:43.734Z,100.00
2023-02-02T18:19:14.560Z,100.00
2023-02-02T18:21:45.273Z,100.00
2023-02-02T18:24:16.690Z,100.00
2023-02-02T18:26:46.944Z,100.00
2023-02-02T18:29:18.624Z,100.00
2023-02-02T18:31:48.508Z,100.00
2023-02-02T18:34:18.925Z,100.00
2023-02-02T18:36:49.236Z,100.00
2023-02-02T18:39:20.213Z,100.00
2023-02-02T19:28:14.117Z,100.00
2023-02-02T19:31:36.216Z,100.00
2023-02-02T19:34:17.980Z,100.00
2023-02-02T19:37:02.073Z,100.00
2023-02-02T19:39:44.406Z,100.00
2023-02-02T19:42:18.655Z,100.00
2023-02-02T19:44:51.224Z,100.00
2023-02-02T19:51:38.979Z,100.00
2023-02-02T19:54:51.947Z,100.00
2023-02-02T19:57:24.245Z,100.00
2023-02-02T19:59:55.978Z,100.00
2023-02-02T20:03:06.052Z,100.00
2023-02-02T20:05:46.402Z,100.00
2023-02-02T20:08:45.233Z,100.00
2023-02-02T20:11:32.987Z,100.00
2023-02-02T20:14:12.478Z,100.00
2023-02-02T20:17:06.719Z,100.00
2023-02-02T20:19:50.069Z,100.00
2023-02-02T20:22:26.386Z,100.00
2023-02-02T20:25:26.513Z,100.00
2023-02-02T20:27:59.426Z,100.00
2023-02-02T20:30:33.310Z,100.00
2023-02-02T20:33:24.368Z,100.00
2023-02-02T20:35:57.411Z,100.00
2023-02-02T20:38:32.405Z,100.00
2023-02-02T20:41:08.222Z,100.00
2023-02-02T20:43:45.144Z,100.00
2023-02-02T20:46:24.320Z,100.00
2023-02-02T20:49:00.460Z,100.00
2023-02-02T20:51:33.146Z,100.00
2023-02-02T20:54:10.492Z,100.00
2023-02-02T21:27:03.344Z,100.00
2023-02-02T21:29:41.376Z,100.00
2023-02-02T21:33:02.849Z,100.00
2023-02-02T21:35:46.476Z,100.00
2023-02-02T21:38:18.163Z,100.00
2023-02-02T21:41:01.957Z,100.00
2023-02-02T21:43:34.658Z,100.00
2023-02-02T21:51:02.663Z,100.00
2023-02-02T21:53:35.318Z,100.00
2023-02-02T21:56:34.113Z,100.00
2023-02-02T21:59:14.872Z,100.00
2023-02-02T22:43:24.966Z,100.00
2023-02-02T22:45:55.532Z,100.00
2023-02-02T22:48:29.683Z,100.00
